sensor_id;sensor_type;location;lat;lon;timestamp;temperature;humidity
49717;DHT22;35609;53.166;7.610;2023-03-13T00:01:21;7.70;99.90
49717;DHT22;35609;53.166;7.610;2023-03-13T00:03:47;7.70;99.90
49717;DHT22;35609;53.166;7.610;2023-03-13T00:06:13;7.60;99.90
49717;DHT22;35609;53.166;7.610;2023-03-13T00:08:39;7.80;99.90
49717;DHT22;35609;53.166;7.610;2023-03-13T00:11:07;7.70;99.90
49717;DHT22;35609;53.166;7.610;2023-03-13T00:13:33;7.70;99.90
49717;DHT22;35609;53.166;7.610;2023-03-13T00:16:00;7.70;99.90
49717;DHT22;35609;53.166;7.610;2023-03-13T00:18:26;7.70;99.90
49717;DHT22;35609;53.166;7.610;2023-03-13T00:21:03;7.60;99.90
49717;DHT22;35609;53.166;7.610;2023-03-13T00:23:29;7.70;99.90
49717;DHT22;35609;53.166;7.610;2023-03-13T00:26:00;7.50;99.90
49717;DHT22;35609;53.166;7.610;2023-03-13T00:28:30;7.60;99.90
49717;DHT22;35609;53.166;7.610;2023-03-13T00:33:26;7.50;99.90
49717;DHT22;35609;53.166;7.610;2023-03-13T00:35:51;7.50;99.90
49717;DHT22;35609;53.166;7.610;2023-03-13T00:38:17;7.60;99.90
49717;DHT22;35609;53.166;7.610;2023-03-13T00:40:43;7.60;99.90
49717;DHT22;35609;53.166;7.610;2023-03-13T00:43:08;7.50;99.90
49717;DHT22;35609;53.166;7.610;2023-03-13T00:45:34;7.50;99.90
49717;DHT22;35609;53.166;7.610;2023-03-13T00:48:00;7.60;99.90
49717;DHT22;35609;53.166;7.610;2023-03-13T00:50:25;7.50;99.90
49717;DHT22;35609;53.166;7.610;2023-03-13T00:52:51;7.60;99.90
49717;DHT22;35609;53.166;7.610;2023-03-13T00:55:17;7.50;99.90
49717;DHT22;35609;53.166;7.610;2023-03-13T00:57:42;7.50;99.90
49717;DHT22;35609;53.166;7.610;2023-03-13T01:00:08;7.40;99.90
49717;DHT22;35609;53.166;7.610;2023-03-13T01:02:40;7.50;99.90
49717;DHT22;35609;53.166;7.610;2023-03-13T01:05:06;7.50;99.90
49717;DHT22;35609;53.166;7.610;2023-03-13T01:07:32;7.50;99.90
49717;DHT22;35609;53.166;7.610;2023-03-13T01:09:58;7.30;99.90
49717;DHT22;35609;53.166;7.610;2023-03-13T01:12:23;7.40;99.90
49717;DHT22;35609;53.166;7.610;2023-03-13T01:14:49;7.50;99.90
49717;DHT22;35609;53.166;7.610;2023-03-13T01:17:15;7.40;99.90
49717;DHT22;35609;53.166;7.610;2023-03-13T01:19:41;7.40;99.90
49717;DHT22;35609;53.166;7.610;2023-03-13T01:22:06;7.40;99.90
49717;DHT22;35609;53.166;7.610;2023-03-13T01:24:35;7.50;99.90
49717;DHT22;35609;53.166;7.610;2023-03-13T01:27:01;7.40;99.90
49717;DHT22;35609;53.166;7.610;2023-03-13T01:29:26;7.50;99.90
49717;DHT22;35609;53.166;7.610;2023-03-13T01:31:52;7.50;99.90
49717;DHT22;35609;53.166;7.610;2023-03-13T01:34:18;7.50;99.90
49717;DHT22;35609;53.166;7.610;2023-03-13T01:36:44;7.50;99.90
49717;DHT22;35609;53.166;7.610;2023-03-13T01:39:11;7.50;99.90
49717;DHT22;35609;53.166;7.610;2023-03-13T01:41:37;7.50;99.90
49717;DHT22;35609;53.166;7.610;2023-03-13T01:44:03;7.50;99.90
49717;DHT22;35609;53.166;7.610;2023-03-13T01:46:29;7.50;99.90
49717;DHT22;35609;53.166;7.610;2023-03-13T01:57:15;7.50;99.90
49717;DHT22;35609;53.166;7.610;2023-03-13T02:00:06;7.60;99.90
49717;DHT22;35609;53.166;7.610;2023-03-13T02:02:34;7.70;99.90
49717;DHT22;35609;53.166;7.610;2023-03-13T02:05:02;7.60;99.90
49717;DHT22;35609;53.166;7.610;2023-03-13T02:07:40;7.70;99.90
49717;DHT22;35609;53.166;7.610;2023-03-13T02:10:09;7.60;99.90
49717;DHT22;35609;53.166;7.610;2023-03-13T02:12:39;7.60;99.90
49717;DHT22;35609;53.166;7.610;2023-03-13T02:15:14;7.70;99.90
49717;DHT22;35609;53.166;7.610;2023-03-13T02:17:41;7.60;99.90
49717;DHT22;35609;53.166;7.610;2023-03-13T02:20:08;7.70;99.90
49717;DHT22;35609;53.166;7.610;2023-03-13T02:25:48;7.60;99.90
49717;DHT22;35609;53.166;7.610;2023-03-13T02:30:43;7.60;99.90
49717;DHT22;35609;53.166;7.610;2023-03-13T02:33:14;7.70;99.90
49717;DHT22;35609;53.166;7.610;2023-03-13T02:35:42;7.70;99.90
49717;DHT22;35609;53.166;7.610;2023-03-13T02:38:11;7.70;99.90
49717;DHT22;35609;53.166;7.610;2023-03-13T02:40:40;7.70;99.90
49717;DHT22;35609;53.166;7.610;2023-03-13T02:43:17;7.80;99.90
49717;DHT22;35609;53.166;7.610;2023-03-13T02:48:31;7.80;99.90
49717;DHT22;35609;53.166;7.610;2023-03-13T02:50:57;7.70;99.90
49717;DHT22;35609;53.166;7.610;2023-03-13T02:53:23;7.80;99.90
49717;DHT22;35609;53.166;7.610;2023-03-13T02:55:49;7.80;99.90
49717;DHT22;35609;53.166;7.610;2023-03-13T02:58:15;7.90;99.90
49717;DHT22;35609;53.166;7.610;2023-03-13T03:00:40;7.80;99.90
49717;DHT22;35609;53.166;7.610;2023-03-13T03:03:06;7.90;99.90
49717;DHT22;35609;53.166;7.610;2023-03-13T03:05:32;7.80;99.90
49717;DHT22;35609;53.166;7.610;2023-03-13T03:07:57;7.90;99.90
49717;DHT22;35609;53.166;7.610;2023-03-13T03:10:23;7.90;99.90
49717;DHT22;35609;53.166;7.610;2023-03-13T03:12:49;7.80;99.90
49717;DHT22;35609;53.166;7.610;2023-03-13T03:15:14;7.90;99.90
49717;DHT22;35609;53.166;7.610;2023-03-13T03:17:40;7.80;99.90
49717;DHT22;35609;53.166;7.610;2023-03-13T03:20:06;7.80;99.90
49717;DHT22;35609;53.166;7.610;2023-03-13T03:22:37;7.80;99.90
49717;DHT22;35609;53.166;7.610;2023-03-13T03:25:05;7.90;99.90
49717;DHT22;35609;53.166;7.610;2023-03-13T03:27:31;8.00;99.90
49717;DHT22;35609;53.166;7.610;2023-03-13T03:29:57;7.80;99.90
49717;DHT22;35609;53.166;7.610;2023-03-13T03:32:23;8.00;99.90
49717;DHT22;35609;53.166;7.610;2023-03-13T03:34:48;8.00;99.90
49717;DHT22;35609;53.166;7.610;2023-03-13T03:37:14;7.90;99.90
49717;DHT22;35609;53.166;7.610;2023-03-13T03:39:39;8.00;99.90
49717;DHT22;35609;53.166;7.610;2023-03-13T03:42:05;8.00;99.90
49717;DHT22;35609;53.166;7.610;2023-03-13T03:44:31;8.10;99.90
49717;DHT22;35609;53.166;7.610;2023-03-13T03:46:56;8.10;99.90
49717;DHT22;35609;53.166;7.610;2023-03-13T03:49:22;8.20;99.90
49717;DHT22;35609;53.166;7.610;2023-03-13T03:51:48;8.10;99.90
49717;DHT22;35609;53.166;7.610;2023-03-13T03:54:14;8.20;99.90
49717;DHT22;35609;53.166;7.610;2023-03-13T03:56:39;8.20;99.90
49717;DHT22;35609;53.166;7.610;2023-03-13T03:59:05;8.30;99.90
49717;DHT22;35609;53.166;7.610;2023-03-13T04:01:31;8.20;99.90
49717;DHT22;35609;53.166;7.610;2023-03-13T04:03:56;8.30;99.90
49717;DHT22;35609;53.166;7.610;2023-03-13T04:06:22;8.40;99.90
49717;DHT22;35609;53.166;7.610;2023-03-13T04:08:47;8.40;99.90
49717;DHT22;35609;53.166;7.610;2023-03-13T04:11:13;8.30;99.90
49717;DHT22;35609;53.166;7.610;2023-03-13T04:13:39;8.40;99.90
49717;DHT22;35609;53.166;7.610;2023-03-13T04:16:08;8.40;99.90
49717;DHT22;35609;53.166;7.610;2023-03-13T04:18:34;8.40;99.90
49717;DHT22;35609;53.166;7.610;2023-03-13T04:21:01;8.40;99.90
49717;DHT22;35609;53.166;7.610;2023-03-13T04:23:27;8.50;99.90
49717;DHT22;35609;53.166;7.610;2023-03-13T04:25:52;8.50;99.90
49717;DHT22;35609;53.166;7.610;2023-03-13T04:28:18;8.50;99.90
49717;DHT22;35609;53.166;7.610;2023-03-13T04:30:44;8.60;99.90
49717;DHT22;35609;53.166;7.610;2023-03-13T04:33:09;8.50;99.90
49717;DHT22;35609;53.166;7.610;2023-03-13T04:35:35;8.60;99.90
49717;DHT22;35609;53.166;7.610;2023-03-13T04:38:01;8.60;99.90
49717;DHT22;35609;53.166;7.610;2023-03-13T04:40:27;8.50;99.90
49717;DHT22;35609;53.166;7.610;2023-03-13T04:42:53;8.60;99.90
49717;DHT22;35609;53.166;7.610;2023-03-13T04:45:19;8.70;99.90
49717;DHT22;35609;53.166;7.610;2023-03-13T04:47:48;8.60;99.90
49717;DHT22;35609;53.166;7.610;2023-03-13T04:50:13;8.70;99.90
49717;DHT22;35609;53.166;7.610;2023-03-13T04:52:39;8.60;99.90
49717;DHT22;35609;53.166;7.610;2023-03-13T04:55:05;8.70;99.90
49717;DHT22;35609;53.166;7.610;2023-03-13T04:57:31;8.80;99.90
49717;DHT22;35609;53.166;7.610;2023-03-13T04:59:56;8.70;99.90
49717;DHT22;35609;53.166;7.610;2023-03-13T05:02:22;8.90;99.90
49717;DHT22;35609;53.166;7.610;2023-03-13T05:04:48;8.80;99.90
49717;DHT22;35609;53.166;7.610;2023-03-13T05:07:13;9.00;99.90
49717;DHT22;35609;53.166;7.610;2023-03-13T05:09:39;9.00;99.90
49717;DHT22;35609;53.166;7.610;2023-03-13T05:12:05;9.10;99.90
49717;DHT22;35609;53.166;7.610;2023-03-13T05:14:31;9.20;99.90
49717;DHT22;35609;53.166;7.610;2023-03-13T05:16:57;9.10;99.90
49717;DHT22;35609;53.166;7.610;2023-03-13T05:19:22;9.20;99.90
49717;DHT22;35609;53.166;7.610;2023-03-13T05:21:48;9.30;99.90
49717;DHT22;35609;53.166;7.610;2023-03-13T05:24:14;9.40;99.90
49717;DHT22;35609;53.166;7.610;2023-03-13T05:26:39;9.30;99.90
49717;DHT22;35609;53.166;7.610;2023-03-13T05:29:05;9.40;99.90
49717;DHT22;35609;53.166;7.610;2023-03-13T05:31:31;9.50;99.90
49717;DHT22;35609;53.166;7.610;2023-03-13T05:33:56;9.40;99.90
49717;DHT22;35609;53.166;7.610;2023-03-13T05:36:22;9.40;99.90
49717;DHT22;35609;53.166;7.610;2023-03-13T05:38:48;9.50;99.90
49717;DHT22;35609;53.166;7.610;2023-03-13T05:41:13;9.70;99.90
49717;DHT22;35609;53.166;7.610;2023-03-13T05:43:39;9.70;99.90
49717;DHT22;35609;53.166;7.610;2023-03-13T05:46:04;9.60;99.90
49717;DHT22;35609;53.166;7.610;2023-03-13T05:48:30;9.80;99.90
49717;DHT22;35609;53.166;7.610;2023-03-13T05:50:56;9.80;99.90
49717;DHT22;35609;53.166;7.610;2023-03-13T05:53:21;9.80;99.90
49717;DHT22;35609;53.166;7.610;2023-03-13T05:55:47;9.90;99.90
49717;DHT22;35609;53.166;7.610;2023-03-13T05:58:13;9.90;99.90
49717;DHT22;35609;53.166;7.610;2023-03-13T06:00:38;10.00;99.90
49717;DHT22;35609;53.166;7.610;2023-03-13T06:03:04;9.80;99.90
49717;DHT22;35609;53.166;7.610;2023-03-13T06:05:30;9.90;99.90
49717;DHT22;35609;53.166;7.610;2023-03-13T06:07:55;10.10;99.90
49717;DHT22;35609;53.166;7.610;2023-03-13T06:10:21;10.10;99.90
49717;DHT22;35609;53.166;7.610;2023-03-13T06:12:54;10.10;99.90
49717;DHT22;35609;53.166;7.610;2023-03-13T06:15:20;10.10;99.90
49717;DHT22;35609;53.166;7.610;2023-03-13T06:17:46;10.10;99.90
49717;DHT22;35609;53.166;7.610;2023-03-13T06:20:12;10.00;99.90
49717;DHT22;35609;53.166;7.610;2023-03-13T06:22:38;10.20;99.90
49717;DHT22;35609;53.166;7.610;2023-03-13T06:25:05;10.30;99.90
49717;DHT22;35609;53.166;7.610;2023-03-13T06:27:31;10.20;99.90
49717;DHT22;35609;53.166;7.610;2023-03-13T06:29:56;10.40;99.90
49717;DHT22;35609;53.166;7.610;2023-03-13T06:35:00;10.40;99.90
49717;DHT22;35609;53.166;7.610;2023-03-13T06:37:26;10.50;99.90
49717;DHT22;35609;53.166;7.610;2023-03-13T06:39:51;10.60;99.90
49717;DHT22;35609;53.166;7.610;2023-03-13T06:42:17;10.40;99.90
49717;DHT22;35609;53.166;7.610;2023-03-13T06:44:43;10.60;99.90
49717;DHT22;35609;53.166;7.610;2023-03-13T06:47:09;10.60;99.90
49717;DHT22;35609;53.166;7.610;2023-03-13T06:49:34;10.70;99.90
49717;DHT22;35609;53.166;7.610;2023-03-13T06:52:00;10.60;99.90
49717;DHT22;35609;53.166;7.610;2023-03-13T06:54:26;10.60;99.90
49717;DHT22;35609;53.166;7.610;2023-03-13T06:56:52;10.70;99.90
49717;DHT22;35609;53.166;7.610;2023-03-13T06:59:18;10.60;99.90
49717;DHT22;35609;53.166;7.610;2023-03-13T07:01:43;10.60;99.90
49717;DHT22;35609;53.166;7.610;2023-03-13T07:04:11;10.70;99.90
49717;DHT22;35609;53.166;7.610;2023-03-13T07:06:37;10.80;99.90
49717;DHT22;35609;53.166;7.610;2023-03-13T07:09:03;10.90;99.90
49717;DHT22;35609;53.166;7.610;2023-03-13T07:11:29;10.80;99.90
49717;DHT22;35609;53.166;7.610;2023-03-13T07:13:55;10.80;99.90
49717;DHT22;35609;53.166;7.610;2023-03-13T07:16:21;10.80;99.90
49717;DHT22;35609;53.166;7.610;2023-03-13T07:18:47;10.90;99.90
49717;DHT22;35609;53.166;7.610;2023-03-13T07:21:12;10.90;99.90
49717;DHT22;35609;53.166;7.610;2023-03-13T07:23:38;11.00;99.90
49717;DHT22;35609;53.166;7.610;2023-03-13T07:26:07;11.20;99.90
49717;DHT22;35609;53.166;7.610;2023-03-13T07:28:33;11.20;99.90
49717;DHT22;35609;53.166;7.610;2023-03-13T07:31:19;11.20;99.90
49717;DHT22;35609;53.166;7.610;2023-03-13T07:33:45;11.20;99.90
49717;DHT22;35609;53.166;7.610;2023-03-13T07:36:12;11.30;99.90
49717;DHT22;35609;53.166;7.610;2023-03-13T07:38:38;11.10;99.90
49717;DHT22;35609;53.166;7.610;2023-03-13T07:41:04;11.30;99.90
49717;DHT22;35609;53.166;7.610;2023-03-13T07:43:30;11.30;99.90
49717;DHT22;35609;53.166;7.610;2023-03-13T07:46:01;11.10;99.90
49717;DHT22;35609;53.166;7.610;2023-03-13T07:48:30;11.20;99.90
49717;DHT22;35609;53.166;7.610;2023-03-13T07:50:56;11.30;99.90
49717;DHT22;35609;53.166;7.610;2023-03-13T07:53:22;11.40;99.90
49717;DHT22;35609;53.166;7.610;2023-03-13T07:56:11;11.40;99.90
49717;DHT22;35609;53.166;7.610;2023-03-13T07:58:38;11.40;99.90
49717;DHT22;35609;53.166;7.610;2023-03-13T08:01:13;11.20;99.90
49717;DHT22;35609;53.166;7.610;2023-03-13T08:03:39;11.20;99.90
49717;DHT22;35609;53.166;7.610;2023-03-13T08:06:08;11.30;99.90
49717;DHT22;35609;53.166;7.610;2023-03-13T08:08:34;11.20;99.90
49717;DHT22;35609;53.166;7.610;2023-03-13T08:11:02;11.20;99.90
49717;DHT22;35609;53.166;7.610;2023-03-13T08:13:29;11.50;99.90
49717;DHT22;35609;53.166;7.610;2023-03-13T08:16:03;11.50;99.90
49717;DHT22;35609;53.166;7.610;2023-03-13T08:18:28;11.50;99.90
49717;DHT22;35609;53.166;7.610;2023-03-13T08:21:00;11.30;99.90
49717;DHT22;35609;53.166;7.610;2023-03-13T08:23:27;11.50;99.90
49717;DHT22;35609;53.166;7.610;2023-03-13T08:25:52;11.60;99.90
49717;DHT22;35609;53.166;7.610;2023-03-13T08:28:18;11.60;99.90
49717;DHT22;35609;53.166;7.610;2023-03-13T08:30:43;11.60;99.90
49717;DHT22;35609;53.166;7.610;2023-03-13T08:33:09;11.40;99.90
49717;DHT22;35609;53.166;7.610;2023-03-13T08:35:35;11.60;99.90
49717;DHT22;35609;53.166;7.610;2023-03-13T08:38:01;11.60;99.90
49717;DHT22;35609;53.166;7.610;2023-03-13T08:40:27;11.40;99.90
49717;DHT22;35609;53.166;7.610;2023-03-13T08:42:53;11.40;99.90
49717;DHT22;35609;53.166;7.610;2023-03-13T08:45:18;11.40;99.90
49717;DHT22;35609;53.166;7.610;2023-03-13T08:47:44;11.50;99.90
49717;DHT22;35609;53.166;7.610;2023-03-13T08:50:10;11.30;99.90
49717;DHT22;35609;53.166;7.610;2023-03-13T08:52:36;11.50;99.90
49717;DHT22;35609;53.166;7.610;2023-03-13T08:55:01;11.70;99.90
49717;DHT22;35609;53.166;7.610;2023-03-13T08:57:27;11.40;99.90
49717;DHT22;35609;53.166;7.610;2023-03-13T08:59:53;11.70;99.90
49717;DHT22;35609;53.166;7.610;2023-03-13T09:02:18;11.70;99.90
49717;DHT22;35609;53.166;7.610;2023-03-13T09:04:46;11.40;99.90
49717;DHT22;35609;53.166;7.610;2023-03-13T09:07:12;11.40;99.90
49717;DHT22;35609;53.166;7.610;2023-03-13T09:09:38;11.80;99.90
49717;DHT22;35609;53.166;7.610;2023-03-13T09:12:04;11.80;99.90
49717;DHT22;35609;53.166;7.610;2023-03-13T09:14:30;12.00;99.90
49717;DHT22;35609;53.166;7.610;2023-03-13T09:16:55;11.80;99.90
49717;DHT22;35609;53.166;7.610;2023-03-13T09:19:23;12.10;99.90
49717;DHT22;35609;53.166;7.610;2023-03-13T09:21:49;11.90;99.90
49717;DHT22;35609;53.166;7.610;2023-03-13T09:24:15;12.10;99.90
49717;DHT22;35609;53.166;7.610;2023-03-13T09:26:40;12.10;99.90
49717;DHT22;35609;53.166;7.610;2023-03-13T09:29:06;12.20;99.90
49717;DHT22;35609;53.166;7.610;2023-03-13T09:31:32;12.20;99.90
49717;DHT22;35609;53.166;7.610;2023-03-13T09:33:59;12.20;99.90
49717;DHT22;35609;53.166;7.610;2023-03-13T09:36:25;12.40;99.90
49717;DHT22;35609;53.166;7.610;2023-03-13T09:38:55;12.50;99.90
49717;DHT22;35609;53.166;7.610;2023-03-13T09:41:39;12.80;99.90
49717;DHT22;35609;53.166;7.610;2023-03-13T09:44:20;13.00;99.90
49717;DHT22;35609;53.166;7.610;2023-03-13T09:47:15;13.00;99.90
49717;DHT22;35609;53.166;7.610;2023-03-13T09:49:54;13.00;99.90
49717;DHT22;35609;53.166;7.610;2023-03-13T09:52:27;13.20;99.90
49717;DHT22;35609;53.166;7.610;2023-03-13T09:55:03;13.00;99.90
49717;DHT22;35609;53.166;7.610;2023-03-13T09:57:50;13.20;99.90
49717;DHT22;35609;53.166;7.610;2023-03-13T10:00:38;13.50;99.90
49717;DHT22;35609;53.166;7.610;2023-03-13T10:05:38;13.40;99.90
49717;DHT22;35609;53.166;7.610;2023-03-13T10:08:19;13.30;99.90
49717;DHT22;35609;53.166;7.610;2023-03-13T10:11:11;13.40;99.90
49717;DHT22;35609;53.166;7.610;2023-03-13T10:13:47;13.30;99.90
49717;DHT22;35609;53.166;7.610;2023-03-13T10:16:19;13.50;99.90
49717;DHT22;35609;53.166;7.610;2023-03-13T10:18:51;13.70;99.90
49717;DHT22;35609;53.166;7.610;2023-03-13T10:21:20;13.60;99.90
49717;DHT22;35609;53.166;7.610;2023-03-13T10:24:16;13.80;99.90
49717;DHT22;35609;53.166;7.610;2023-03-13T10:26:43;14.00;99.90
49717;DHT22;35609;53.166;7.610;2023-03-13T10:29:29;14.10;99.90
49717;DHT22;35609;53.166;7.610;2023-03-13T10:32:03;14.00;99.90
49717;DHT22;35609;53.166;7.610;2023-03-13T10:34:56;14.10;99.90
49717;DHT22;35609;53.166;7.610;2023-03-13T10:37:45;14.10;99.90
49717;DHT22;35609;53.166;7.610;2023-03-13T10:40:30;14.10;99.90
49717;DHT22;35609;53.166;7.610;2023-03-13T10:43:02;14.20;99.90
49717;DHT22;35609;53.166;7.610;2023-03-13T10:45:32;14.20;99.90
49717;DHT22;35609;53.166;7.610;2023-03-13T10:48:12;14.40;99.90
49717;DHT22;35609;53.166;7.610;2023-03-13T10:50:42;14.40;99.90
49717;DHT22;35609;53.166;7.610;2023-03-13T10:56:13;14.30;99.90
49717;DHT22;35609;53.166;7.610;2023-03-13T10:58:51;14.30;99.90
49717;DHT22;35609;53.166;7.610;2023-03-13T11:01:40;14.40;99.90
49717;DHT22;35609;53.166;7.610;2023-03-13T11:04:30;14.40;99.90
49717;DHT22;35609;53.166;7.610;2023-03-13T11:07:16;14.50;99.90
49717;DHT22;35609;53.166;7.610;2023-03-13T11:09:57;14.40;99.90
49717;DHT22;35609;53.166;7.610;2023-03-13T11:12:23;14.30;99.90
49717;DHT22;35609;53.166;7.610;2023-03-13T11:14:58;14.40;99.90
49717;DHT22;35609;53.166;7.610;2023-03-13T11:17:39;14.50;99.90
49717;DHT22;35609;53.166;7.610;2023-03-13T11:20:18;14.60;99.90
49717;DHT22;35609;53.166;7.610;2023-03-13T11:22:55;14.60;99.90
49717;DHT22;35609;53.166;7.610;2023-03-13T11:25:38;14.60;99.90
49717;DHT22;35609;53.166;7.610;2023-03-13T11:28:22;14.70;99.90
49717;DHT22;35609;53.166;7.610;2023-03-13T11:31:07;14.80;99.90
49717;DHT22;35609;53.166;7.610;2023-03-13T11:33:54;14.80;99.90
49717;DHT22;35609;53.166;7.610;2023-03-13T11:36:34;14.80;99.90
49717;DHT22;35609;53.166;7.610;2023-03-13T11:45:02;14.90;99.90
49717;DHT22;35609;53.166;7.610;2023-03-13T11:47:48;14.90;99.90
49717;DHT22;35609;53.166;7.610;2023-03-13T11:55:57;15.60;99.90
49717;DHT22;35609;53.166;7.610;2023-03-13T12:01:16;15.70;99.90
49717;DHT22;35609;53.166;7.610;2023-03-13T12:03:57;15.60;99.90
49717;DHT22;35609;53.166;7.610;2023-03-13T12:06:35;15.30;99.90
49717;DHT22;35609;53.166;7.610;2023-03-13T12:09:27;15.40;99.90
49717;DHT22;35609;53.166;7.610;2023-03-13T12:12:46;15.50;99.90
49717;DHT22;35609;53.166;7.610;2023-03-13T12:15:04;15.70;99.90
49717;DHT22;35609;53.166;7.610;2023-03-13T12:17:42;16.20;99.90
49717;DHT22;35609;53.166;7.610;2023-03-13T12:20:27;16.60;99.90
49717;DHT22;35609;53.166;7.610;2023-03-13T12:26:05;16.50;99.90
49717;DHT22;35609;53.166;7.610;2023-03-13T12:31:25;17.10;99.90
49717;DHT22;35609;53.166;7.610;2023-03-13T12:37:15;17.10;99.90
49717;DHT22;35609;53.166;7.610;2023-03-13T12:39:52;16.50;99.90
49717;DHT22;35609;53.166;7.610;2023-03-13T12:42:41;16.50;99.90
49717;DHT22;35609;53.166;7.610;2023-03-13T12:45:19;16.40;99.90
49717;DHT22;35609;53.166;7.610;2023-03-13T12:53:18;16.10;99.90
49717;DHT22;35609;53.166;7.610;2023-03-13T12:56:08;16.30;99.90
49717;DHT22;35609;53.166;7.610;2023-03-13T12:58:50;16.00;99.90
49717;DHT22;35609;53.166;7.610;2023-03-13T13:01:30;16.00;99.90
49717;DHT22;35609;53.166;7.610;2023-03-13T13:04:06;16.00;99.90
49717;DHT22;35609;53.166;7.610;2023-03-13T13:07:17;16.40;99.90
49717;DHT22;35609;53.166;7.610;2023-03-13T13:12:37;17.00;99.90
49717;DHT22;35609;53.166;7.610;2023-03-13T13:15:09;16.90;99.90
49717;DHT22;35609;53.166;7.610;2023-03-13T13:20:47;16.70;99.90
49717;DHT22;35609;53.166;7.610;2023-03-13T13:23:42;17.10;99.90
49717;DHT22;35609;53.166;7.610;2023-03-13T13:36:58;17.60;99.90
49717;DHT22;35609;53.166;7.610;2023-03-13T13:39:38;17.50;99.90
49717;DHT22;35609;53.166;7.610;2023-03-13T13:45:02;17.70;99.90
49717;DHT22;35609;53.166;7.610;2023-03-13T13:47:30;17.60;99.90
49717;DHT22;35609;53.166;7.610;2023-03-13T13:49:58;17.80;99.90
49717;DHT22;35609;53.166;7.610;2023-03-13T13:52:40;17.90;99.90
49717;DHT22;35609;53.166;7.610;2023-03-13T13:58:18;18.20;99.90
49717;DHT22;35609;53.166;7.610;2023-03-13T14:00:58;17.60;99.90
49717;DHT22;35609;53.166;7.610;2023-03-13T14:03:30;17.00;99.90
49717;DHT22;35609;53.166;7.610;2023-03-13T14:06:02;16.80;99.90
49717;DHT22;35609;53.166;7.610;2023-03-13T14:08:30;16.70;99.90
49717;DHT22;35609;53.166;7.610;2023-03-13T14:13:39;17.00;99.90
49717;DHT22;35609;53.166;7.610;2023-03-13T14:16:20;16.90;99.90
49717;DHT22;35609;53.166;7.610;2023-03-13T14:18:47;16.80;99.90
49717;DHT22;35609;53.166;7.610;2023-03-13T14:21:13;16.70;99.90
49717;DHT22;35609;53.166;7.610;2023-03-13T14:23:40;16.70;99.90
49717;DHT22;35609;53.166;7.610;2023-03-13T14:28:49;17.20;99.90
49717;DHT22;35609;53.166;7.610;2023-03-13T14:33:55;17.10;99.90
49717;DHT22;35609;53.166;7.610;2023-03-13T14:36:21;17.30;99.90
49717;DHT22;35609;53.166;7.610;2023-03-13T14:38:55;17.30;99.90
49717;DHT22;35609;53.166;7.610;2023-03-13T14:41:42;17.30;99.90
49717;DHT22;35609;53.166;7.610;2023-03-13T14:44:23;17.20;99.90
49717;DHT22;35609;53.166;7.610;2023-03-13T14:46:54;17.20;99.90
49717;DHT22;35609;53.166;7.610;2023-03-13T14:49:22;17.20;99.90
49717;DHT22;35609;53.166;7.610;2023-03-13T14:54:34;17.20;99.90
49717;DHT22;35609;53.166;7.610;2023-03-13T14:59:28;17.10;99.90
49717;DHT22;35609;53.166;7.610;2023-03-13T15:04:46;16.80;99.90
49717;DHT22;35609;53.166;7.610;2023-03-13T15:07:12;16.70;99.90
49717;DHT22;35609;53.166;7.610;2023-03-13T15:09:41;16.60;99.90
49717;DHT22;35609;53.166;7.610;2023-03-13T15:12:19;16.60;99.90
49717;DHT22;35609;53.166;7.610;2023-03-13T15:14:47;16.50;99.90
49717;DHT22;35609;53.166;7.610;2023-03-13T15:17:31;16.40;99.90
49717;DHT22;35609;53.166;7.610;2023-03-13T15:19:58;16.40;99.90
49717;DHT22;35609;53.166;7.610;2023-03-13T15:22:32;16.50;99.90
49717;DHT22;35609;53.166;7.610;2023-03-13T15:24:58;16.40;99.90
49717;DHT22;35609;53.166;7.610;2023-03-13T15:27:25;16.30;99.90
49717;DHT22;35609;53.166;7.610;2023-03-13T15:29:51;16.20;99.90
49717;DHT22;35609;53.166;7.610;2023-03-13T15:32:28;16.30;99.90
49717;DHT22;35609;53.166;7.610;2023-03-13T15:34:55;16.20;99.90
49717;DHT22;35609;53.166;7.610;2023-03-13T15:37:24;16.20;99.90
49717;DHT22;35609;53.166;7.610;2023-03-13T15:39:49;16.20;99.90
49717;DHT22;35609;53.166;7.610;2023-03-13T15:42:15;16.10;99.90
49717;DHT22;35609;53.166;7.610;2023-03-13T15:44:40;16.00;99.90
49717;DHT22;35609;53.166;7.610;2023-03-13T15:47:10;15.80;99.90
49717;DHT22;35609;53.166;7.610;2023-03-13T15:49:36;15.70;99.90
49717;DHT22;35609;53.166;7.610;2023-03-13T15:52:04;15.60;99.90
49717;DHT22;35609;53.166;7.610;2023-03-13T15:54:30;15.50;99.90
49717;DHT22;35609;53.166;7.610;2023-03-13T15:56:55;15.50;99.90
49717;DHT22;35609;53.166;7.610;2023-03-13T15:59:21;15.50;99.90
49717;DHT22;35609;53.166;7.610;2023-03-13T16:01:47;15.60;99.90
49717;DHT22;35609;53.166;7.610;2023-03-13T16:04:14;15.50;99.90
49717;DHT22;35609;53.166;7.610;2023-03-13T16:06:39;15.40;99.90
49717;DHT22;35609;53.166;7.610;2023-03-13T16:09:06;15.40;99.90
49717;DHT22;35609;53.166;7.610;2023-03-13T16:11:32;15.40;99.90
49717;DHT22;35609;53.166;7.610;2023-03-13T16:13:58;15.40;99.90
49717;DHT22;35609;53.166;7.610;2023-03-13T16:16:27;15.30;99.90
49717;DHT22;35609;53.166;7.610;2023-03-13T16:18:54;15.30;99.90
49717;DHT22;35609;53.166;7.610;2023-03-13T16:21:26;15.30;99.90
49717;DHT22;35609;53.166;7.610;2023-03-13T16:23:52;15.30;99.90
49717;DHT22;35609;53.166;7.610;2023-03-13T16:26:23;15.10;99.90
49717;DHT22;35609;53.166;7.610;2023-03-13T16:28:50;15.00;99.90
49717;DHT22;35609;53.166;7.610;2023-03-13T16:31:19;15.00;99.90
49717;DHT22;35609;53.166;7.610;2023-03-13T16:36:16;14.80;99.90
49717;DHT22;35609;53.166;7.610;2023-03-13T16:38:42;14.70;99.90
49717;DHT22;35609;53.166;7.610;2023-03-13T16:41:14;14.60;99.90
49717;DHT22;35609;53.166;7.610;2023-03-13T16:43:40;14.50;99.90
49717;DHT22;35609;53.166;7.610;2023-03-13T16:48:57;14.20;99.90
49717;DHT22;35609;53.166;7.610;2023-03-13T16:51:25;14.10;99.90
49717;DHT22;35609;53.166;7.610;2023-03-13T16:53:52;14.10;99.90
49717;DHT22;35609;53.166;7.610;2023-03-13T16:56:33;13.90;99.90
49717;DHT22;35609;53.166;7.610;2023-03-13T16:59:00;13.80;99.90
49717;DHT22;35609;53.166;7.610;2023-03-13T17:01:27;13.80;99.90
49717;DHT22;35609;53.166;7.610;2023-03-13T17:03:55;13.70;99.90
49717;DHT22;35609;53.166;7.610;2023-03-13T17:08:52;13.50;99.90
49717;DHT22;35609;53.166;7.610;2023-03-13T17:11:20;13.40;99.90
49717;DHT22;35609;53.166;7.610;2023-03-13T17:13:48;13.30;99.90
49717;DHT22;35609;53.166;7.610;2023-03-13T17:16:23;13.20;99.90
49717;DHT22;35609;53.166;7.610;2023-03-13T17:18:51;13.20;99.90
49717;DHT22;35609;53.166;7.610;2023-03-13T17:21:22;13.10;99.90
49717;DHT22;35609;53.166;7.610;2023-03-13T17:23:49;13.00;99.90
49717;DHT22;35609;53.166;7.610;2023-03-13T17:26:26;12.90;99.90
49717;DHT22;35609;53.166;7.610;2023-03-13T17:28:54;12.90;99.90
49717;DHT22;35609;53.166;7.610;2023-03-13T17:31:21;12.80;99.90
49717;DHT22;35609;53.166;7.610;2023-03-13T17:33:48;12.60;99.90
49717;DHT22;35609;53.166;7.610;2023-03-13T17:36:24;12.70;99.90